SAS1716 EKCH-EDDL
Flight info
| Callsign | SAS1716 |
|---|---|
| Flight time | N/A |
| Altitude | 38000 |
| Route | NEXEN T503 GIMRU DCT MICOS DCT KEGAB DCT DENOL/N0435F260 T851 HALME HALME1A |
| Aircraft | B738/M-SDE2E3FGHIRWXY/LB1 |
Departure
| Time | 2026-05-04 18:17 |
|---|---|
| Airport | Copenhagen Kastrup Airport (EKCH) |
Arrival
| Time | N/A |
|---|---|
| Airport | Düsseldorf Airport (EDDL) |
| Time | Latitude | Longitude | Altitude | Speed | Heading |
|---|---|---|---|---|---|
| 2026-05-04 17:53 | 55.62507 | 12.65460 | 28 ft | 0 kts | 0° |
| 2026-05-04 18:06 | 55.62491 | 12.65460 | 17 ft | 3 kts | 359° |
| 2026-05-04 18:07 | 55.62471 | 12.65461 | 20 ft | 3 kts | 358° |
| 2026-05-04 18:07 | 55.62451 | 12.65467 | 19 ft | 3 kts | 322° |
| 2026-05-04 18:07 | 55.62439 | 12.65496 | 18 ft | 2 kts | 277° |
| 2026-05-04 18:07 | 55.62438 | 12.65496 | 18 ft | 0 kts | 276° |
| 2026-05-04 18:09 | 55.62384 | 12.65332 | 19 ft | 11 kts | 185° |
| 2026-05-04 18:09 | 55.62366 | 12.65331 | 19 ft | 0 kts | 180° |
| 2026-05-04 18:10 | 55.62338 | 12.65329 | 19 ft | 8 kts | 187° |
| 2026-05-04 18:11 | 55.62295 | 12.65255 | 21 ft | 10 kts | 260° |
| 2026-05-04 18:11 | 55.62280 | 12.65139 | 21 ft | 10 kts | 260° |
| 2026-05-04 18:11 | 55.62304 | 12.65005 | 23 ft | 13 kts | 300° |
| 2026-05-04 18:11 | 55.62347 | 12.64857 | 26 ft | 14 kts | 277° |
| 2026-05-04 18:12 | 55.62319 | 12.64686 | 20 ft | 15 kts | 247° |
| 2026-05-04 18:12 | 55.62300 | 12.64608 | 21 ft | 0 kts | 246° |
| 2026-05-04 18:12 | 55.62299 | 12.64603 | 20 ft | 1 kts | 246° |
| 2026-05-04 18:13 | 55.62294 | 12.64584 | 20 ft | 1 kts | 246° |
| 2026-05-04 18:13 | 55.62284 | 12.64541 | 18 ft | 11 kts | 246° |
| 2026-05-04 18:13 | 55.62112 | 12.64271 | 19 ft | 18 kts | 206° |
| 2026-05-04 18:14 | 55.62001 | 12.64179 | 19 ft | 17 kts | 204° |
| 2026-05-04 18:14 | 55.61898 | 12.64096 | 23 ft | 15 kts | 204° |
| 2026-05-04 18:14 | 55.61800 | 12.64077 | 19 ft | 10 kts | 177° |
| 2026-05-04 18:15 | 55.61763 | 12.64080 | 18 ft | 5 kts | 178° |
| 2026-05-04 18:15 | 55.61612 | 12.64043 | 19 ft | 9 kts | 221° |
| 2026-05-04 18:15 | 55.61562 | 12.63965 | 17 ft | 11 kts | 221° |
| 2026-05-04 18:16 | 55.61431 | 12.63764 | 15 ft | 55 kts | 221° |
| 2026-05-04 18:16 | 55.60960 | 12.63041 | 16 ft | 120 kts | 221° |
| 2026-05-04 18:16 | 55.60235 | 12.61882 | 203 ft | 151 kts | 226° |
| 2026-05-04 18:17 | 55.58629 | 12.59383 | 1289 ft | 173 kts | 225° |
| 2026-05-04 18:17 | 55.57635 | 12.57887 | 1547 ft | 202 kts | 224° |
| 2026-05-04 18:17 | 55.55141 | 12.54476 | 2191 ft | 248 kts | 219° |
| 2026-05-04 18:18 | 55.53707 | 12.52725 | 2950 ft | 252 kts | 218° |
| 2026-05-04 18:18 | 55.52259 | 12.50979 | 3798 ft | 253 kts | 219° |
| 2026-05-04 18:18 | 55.50784 | 12.49197 | 4479 ft | 262 kts | 218° |
| 2026-05-04 18:18 | 55.49281 | 12.47359 | 5233 ft | 265 kts | 219° |
| 2026-05-04 18:19 | 55.46205 | 12.43637 | 6827 ft | 269 kts | 218° |
| 2026-05-04 18:19 | 55.44676 | 12.41797 | 7789 ft | 265 kts | 219° |
| 2026-05-04 18:19 | 55.43152 | 12.39937 | 8632 ft | 268 kts | 219° |
| 2026-05-04 18:20 | 55.41622 | 12.38057 | 9518 ft | 269 kts | 219° |
| 2026-05-04 18:20 | 55.40071 | 12.36186 | 10296 ft | 274 kts | 218° |
| 2026-05-04 18:20 | 55.38438 | 12.34194 | 10550 ft | 298 kts | 219° |
| 2026-05-04 18:20 | 55.36680 | 12.32000 | 10767 ft | 321 kts | 219° |
| 2026-05-04 18:21 | 55.34815 | 12.29685 | 10984 ft | 342 kts | 218° |
| 2026-05-04 18:21 | 55.32829 | 12.27276 | 11540 ft | 350 kts | 218° |
| 2026-05-04 18:21 | 55.30805 | 12.24870 | 12341 ft | 352 kts | 218° |
| 2026-05-04 18:21 | 55.28766 | 12.22431 | 13029 ft | 358 kts | 218° |
| 2026-05-04 18:22 | 55.26695 | 12.19923 | 13662 ft | 366 kts | 218° |
| 2026-05-04 18:22 | 55.24569 | 12.17379 | 14257 ft | 372 kts | 217° |
| 2026-05-04 18:22 | 55.22426 | 12.14825 | 15050 ft | 372 kts | 218° |
| 2026-05-04 18:22 | 55.20299 | 12.12277 | 15972 ft | 370 kts | 218° |
| 2026-05-04 18:23 | 55.18202 | 12.09663 | 16758 ft | 371 kts | 219° |
| 2026-05-04 18:23 | 55.16113 | 12.06981 | 17441 ft | 375 kts | 220° |
| 2026-05-04 18:23 | 55.14010 | 12.04259 | 18141 ft | 378 kts | 220° |
| 2026-05-04 18:23 | 55.11889 | 12.01520 | 18737 ft | 381 kts | 220° |
| 2026-05-04 18:24 | 55.09742 | 11.98762 | 18913 ft | 386 kts | 219° |
| 2026-05-04 18:24 | 55.07564 | 11.95976 | 19431 ft | 388 kts | 219° |
| 2026-05-04 18:24 | 55.05394 | 11.93207 | 20224 ft | 385 kts | 219° |
| 2026-05-04 18:24 | 55.03227 | 11.90447 | 20901 ft | 386 kts | 219° |
| 2026-05-04 18:25 | 55.01049 | 11.87677 | 21460 ft | 390 kts | 219° |
| 2026-05-04 18:25 | 54.98847 | 11.84881 | 22011 ft | 393 kts | 219° |
| 2026-05-04 18:25 | 54.96628 | 11.82068 | 22560 ft | 395 kts | 219° |
| 2026-05-04 18:25 | 54.94397 | 11.79246 | 23106 ft | 397 kts | 219° |
| 2026-05-04 18:26 | 54.92163 | 11.76425 | 23746 ft | 396 kts | 220° |
| 2026-05-04 18:26 | 54.89931 | 11.73608 | 24205 ft | 398 kts | 220° |
| 2026-05-04 18:26 | 54.87684 | 11.70776 | 24622 ft | 400 kts | 220° |
| 2026-05-04 18:26 | 54.85420 | 11.67925 | 25042 ft | 403 kts | 220° |
| 2026-05-04 18:27 | 54.83149 | 11.65072 | 25477 ft | 404 kts | 220° |
| 2026-05-04 18:27 | 54.80869 | 11.62212 | 25915 ft | 405 kts | 220° |
| 2026-05-04 18:27 | 54.78578 | 11.59351 | 26320 ft | 407 kts | 220° |
| 2026-05-04 18:27 | 54.76271 | 11.56479 | 26704 ft | 409 kts | 220° |
| 2026-05-04 18:28 | 54.73955 | 11.53601 | 27079 ft | 411 kts | 220° |
| 2026-05-04 18:28 | 54.71630 | 11.50714 | 27433 ft | 412 kts | 220° |
| 2026-05-04 18:28 | 54.69305 | 11.47833 | 27951 ft | 410 kts | 220° |
| 2026-05-04 18:28 | 54.66988 | 11.44965 | 28495 ft | 408 kts | 220° |
| 2026-05-04 18:29 | 54.64690 | 11.42123 | 29038 ft | 405 kts | 220° |
| 2026-05-04 18:29 | 54.62406 | 11.39300 | 29616 ft | 403 kts | 220° |
| 2026-05-04 18:29 | 54.60137 | 11.36499 | 30140 ft | 400 kts | 220° |
| 2026-05-04 18:29 | 54.57874 | 11.33710 | 30535 ft | 400 kts | 220° |
| 2026-05-04 18:30 | 54.53311 | 11.28107 | 31131 ft | 403 kts | 219° |
| 2026-05-04 18:30 | 54.51023 | 11.25311 | 31504 ft | 403 kts | 219° |
| 2026-05-04 18:30 | 54.48739 | 11.22525 | 31858 ft | 403 kts | 219° |
| 2026-05-04 18:31 | 54.46455 | 11.19741 | 32187 ft | 402 kts | 219° |
| 2026-05-04 18:31 | 54.44176 | 11.16966 | 32576 ft | 401 kts | 218° |
| 2026-05-04 18:31 | 54.41898 | 11.14195 | 32933 ft | 401 kts | 218° |
| 2026-05-04 18:31 | 54.39645 | 11.11458 | 33269 ft | 402 kts | 218° |
| 2026-05-04 18:32 | 54.37367 | 11.08693 | 33632 ft | 401 kts | 218° |
| 2026-05-04 18:32 | 54.35090 | 11.05932 | 33993 ft | 401 kts | 218° |
| 2026-05-04 18:32 | 54.32808 | 11.03170 | 34240 ft | 402 kts | 218° |
| 2026-05-04 18:32 | 54.30520 | 11.00405 | 34412 ft | 405 kts | 218° |
| 2026-05-04 18:33 | 54.28198 | 10.97630 | 34620 ft | 407 kts | 217° |
| 2026-05-04 18:33 | 54.25870 | 10.94875 | 34857 ft | 408 kts | 217° |
| 2026-05-04 18:33 | 54.23529 | 10.92117 | 35036 ft | 410 kts | 217° |
| 2026-05-04 18:33 | 54.21174 | 10.89347 | 35246 ft | 411 kts | 217° |
| 2026-05-04 18:34 | 54.18815 | 10.86573 | 35468 ft | 413 kts | 217° |
| 2026-05-04 18:34 | 54.16448 | 10.83792 | 35686 ft | 414 kts | 217° |
| 2026-05-04 18:34 | 54.14073 | 10.81003 | 35890 ft | 416 kts | 217° |
| 2026-05-04 18:34 | 54.11686 | 10.78203 | 36100 ft | 417 kts | 217° |
| 2026-05-04 18:35 | 54.09291 | 10.75397 | 36314 ft | 418 kts | 217° |
| 2026-05-04 18:35 | 54.06889 | 10.72586 | 36522 ft | 420 kts | 217° |
| 2026-05-04 18:35 | 54.04474 | 10.69763 | 36723 ft | 421 kts | 217° |
| 2026-05-04 18:35 | 54.02055 | 10.66940 | 36910 ft | 422 kts | 217° |
| 2026-05-04 18:36 | 53.99624 | 10.64107 | 37105 ft | 424 kts | 217° |
| 2026-05-04 18:36 | 53.97187 | 10.61271 | 37280 ft | 426 kts | 217° |
| 2026-05-04 18:36 | 53.94741 | 10.58429 | 37489 ft | 427 kts | 217° |
| 2026-05-04 18:36 | 53.92289 | 10.55584 | 37685 ft | 428 kts | 217° |
| 2026-05-04 18:37 | 53.89825 | 10.52730 | 37898 ft | 429 kts | 217° |
| 2026-05-04 18:37 | 53.84864 | 10.46992 | 37991 ft | 435 kts | 217° |
| 2026-05-04 18:38 | 53.79837 | 10.41199 | 37995 ft | 438 kts | 217° |
| 2026-05-04 18:38 | 53.74797 | 10.35411 | 37972 ft | 434 kts | 217° |
| 2026-05-04 18:39 | 53.69859 | 10.29755 | 37979 ft | 427 kts | 217° |
| 2026-05-04 18:39 | 53.64919 | 10.24105 | 37994 ft | 431 kts | 217° |
| 2026-05-04 18:40 | 53.59925 | 10.18413 | 37978 ft | 436 kts | 217° |
| 2026-05-04 18:40 | 53.54883 | 10.12685 | 37964 ft | 439 kts | 217° |
| 2026-05-04 18:41 | 53.49811 | 10.06941 | 37984 ft | 441 kts | 217° |
| 2026-05-04 18:41 | 53.44709 | 10.01182 | 37976 ft | 442 kts | 217° |
| 2026-05-04 18:42 | 53.39591 | 9.95417 | 37979 ft | 444 kts | 217° |
| 2026-05-04 18:42 | 53.34460 | 9.89656 | 37983 ft | 445 kts | 217° |
| 2026-05-04 18:43 | 53.29324 | 9.83907 | 37976 ft | 444 kts | 217° |
| 2026-05-04 18:43 | 53.24185 | 9.78172 | 37944 ft | 445 kts | 217° |
| 2026-05-04 18:43 | 53.21612 | 9.75305 | 37666 ft | 439 kts | 217° |
| 2026-05-04 18:44 | 53.19114 | 9.72534 | 37307 ft | 424 kts | 217° |
| 2026-05-04 18:44 | 53.14365 | 9.67273 | 36772 ft | 400 kts | 217° |
| 2026-05-04 18:44 | 53.12046 | 9.64699 | 36527 ft | 403 kts | 217° |
| 2026-05-04 18:45 | 53.11285 | 9.63855 | 36451 ft | 406 kts | 217° |
| 2026-05-04 18:45 | 53.02576 | 9.54227 | 35983 ft | 429 kts | 217° |
| 2026-05-04 18:46 | 53.00089 | 9.51492 | 35982 ft | 426 kts | 217° |
| 2026-05-04 18:46 | 52.95219 | 9.46149 | 35975 ft | 417 kts | 217° |
| 2026-05-04 18:47 | 52.90279 | 9.40988 | 35980 ft | 424 kts | 211° |
| 2026-05-04 18:47 | 52.84973 | 9.36632 | 35987 ft | 427 kts | 209° |
| 2026-05-04 18:48 | 52.79620 | 9.32368 | 35980 ft | 427 kts | 210° |
| 2026-05-04 18:48 | 52.74303 | 9.28081 | 35977 ft | 424 kts | 210° |
| 2026-05-04 18:49 | 52.69032 | 9.23800 | 35971 ft | 421 kts | 210° |
| 2026-05-04 18:49 | 52.63791 | 9.19541 | 35981 ft | 419 kts | 210° |
| 2026-05-04 18:50 | 52.58566 | 9.15306 | 35972 ft | 419 kts | 210° |
| 2026-05-04 18:50 | 52.55961 | 9.13202 | 35497 ft | 413 kts | 210° |
| 2026-05-04 18:50 | 52.54266 | 9.11836 | 35180 ft | 406 kts | 210° |
| 2026-05-04 18:50 | 52.50926 | 9.09149 | 34519 ft | 394 kts | 210° |
| 2026-05-04 18:51 | 52.44214 | 9.03755 | 33129 ft | 375 kts | 210° |
| 2026-05-04 18:51 | 52.41855 | 9.01855 | 32639 ft | 384 kts | 210° |
| 2026-05-04 18:52 | 52.40248 | 9.00559 | 32343 ft | 395 kts | 210° |
| 2026-05-04 18:53 | 52.28478 | 8.91150 | 30313 ft | 424 kts | 210° |
| 2026-05-04 18:53 | 52.25814 | 8.89033 | 29851 ft | 426 kts | 210° |
| 2026-05-04 18:53 | 52.23144 | 8.86912 | 29346 ft | 428 kts | 210° |
| 2026-05-04 18:53 | 52.20460 | 8.84783 | 28830 ft | 429 kts | 209° |
| 2026-05-04 18:54 | 52.17774 | 8.82654 | 28317 ft | 430 kts | 209° |
| 2026-05-04 18:54 | 52.15082 | 8.80523 | 27827 ft | 431 kts | 209° |
| 2026-05-04 18:54 | 52.12385 | 8.78391 | 27356 ft | 432 kts | 209° |
| 2026-05-04 18:54 | 52.10554 | 8.76944 | 27047 ft | 433 kts | 209° |
| 2026-05-04 18:56 | 51.97948 | 8.62141 | 25984 ft | 435 kts | 243° |
| 2026-05-04 18:56 | 51.96934 | 8.57517 | 25975 ft | 437 kts | 255° |
| 2026-05-04 18:56 | 51.96307 | 8.52695 | 25977 ft | 438 kts | 257° |
| 2026-05-04 18:56 | 51.95734 | 8.47935 | 25778 ft | 418 kts | 257° |
| 2026-05-04 18:57 | 51.95190 | 8.43364 | 24790 ft | 410 kts | 257° |
| 2026-05-04 18:57 | 51.94637 | 8.38831 | 23577 ft | 411 kts | 256° |
| 2026-05-04 18:57 | 51.94070 | 8.34299 | 22456 ft | 407 kts | 256° |
| 2026-05-04 18:57 | 51.93696 | 8.31343 | 22359 ft | 388 kts | 256° |
| 2026-05-04 18:58 | 51.93520 | 8.29965 | 22203 ft | 384 kts | 256° |
| 2026-05-04 18:59 | 51.90427 | 8.06251 | 18481 ft | 338 kts | 256° |
| 2026-05-04 18:59 | 51.89951 | 8.02633 | 18358 ft | 320 kts | 256° |
| 2026-05-04 18:59 | 51.89499 | 7.99214 | 18173 ft | 306 kts | 256° |
| 2026-05-04 19:00 | 51.89055 | 7.95862 | 17684 ft | 301 kts | 256° |
| 2026-05-04 19:00 | 51.88614 | 7.92552 | 17128 ft | 302 kts | 256° |
| 2026-05-04 19:00 | 51.88169 | 7.89219 | 16744 ft | 302 kts | 256° |
| 2026-05-04 19:00 | 51.87730 | 7.85931 | 16456 ft | 298 kts | 256° |
| 2026-05-04 19:01 | 51.87294 | 7.82665 | 16127 ft | 296 kts | 256° |
| 2026-05-04 19:01 | 51.86859 | 7.79418 | 15766 ft | 296 kts | 256° |
| 2026-05-04 19:01 | 51.86421 | 7.76161 | 15386 ft | 296 kts | 256° |
| 2026-05-04 19:01 | 51.85986 | 7.72926 | 15162 ft | 294 kts | 256° |
| 2026-05-04 19:02 | 51.85422 | 7.69767 | 14865 ft | 291 kts | 247° |
| 2026-05-04 19:03 | 51.82076 | 7.58508 | 14092 ft | 268 kts | 244° |
| 2026-05-04 19:03 | 51.81273 | 7.55835 | 13999 ft | 260 kts | 244° |
| 2026-05-04 19:03 | 51.80504 | 7.53268 | 13985 ft | 250 kts | 244° |
| 2026-05-04 19:03 | 51.79747 | 7.50745 | 13975 ft | 250 kts | 243° |
| 2026-05-04 19:04 | 51.78993 | 7.48221 | 13971 ft | 250 kts | 243° |
| 2026-05-04 19:04 | 51.78236 | 7.45686 | 13979 ft | 251 kts | 243° |
| 2026-05-04 19:04 | 51.77978 | 7.44823 | 13979 ft | 252 kts | 243° |